createdAt,value
2022-11-16T00:00:53.261Z,9.94
2022-11-16T00:03:38.175Z,9.92
2022-11-16T00:06:22.750Z,9.89
2022-11-16T00:09:07.563Z,9.90
2022-11-16T00:11:52.261Z,9.84
2022-11-16T00:14:37.036Z,9.84
2022-11-16T00:17:21.798Z,9.86
2022-11-16T00:20:06.640Z,9.84
2022-11-16T00:22:51.421Z,9.81
2022-11-16T00:25:36.144Z,9.70
2022-11-16T00:28:20.892Z,9.61
2022-11-16T00:31:05.495Z,9.51
2022-11-16T00:33:50.317Z,9.55
2022-11-16T00:36:35.065Z,9.59
2022-11-16T00:39:19.912Z,9.64
2022-11-16T00:42:04.653Z,9.65
2022-11-16T00:44:49.433Z,9.61
2022-11-16T00:47:34.021Z,9.61
2022-11-16T00:50:18.935Z,9.56
2022-11-16T00:53:03.640Z,9.62
2022-11-16T00:55:48.460Z,9.57
2022-11-16T00:58:33.522Z,9.53
2022-11-16T01:01:18.481Z,9.53
2022-11-16T01:04:03.286Z,9.51
2022-11-16T01:06:47.973Z,9.51
2022-11-16T01:09:32.793Z,9.49
2022-11-16T01:12:17.470Z,9.39
2022-11-16T01:15:02.225Z,9.32
2022-11-16T01:17:46.896Z,9.29
2022-11-16T01:20:31.716Z,9.20
2022-11-16T01:23:16.368Z,9.04
2022-11-16T01:26:01.295Z,8.91
2022-11-16T01:28:46.177Z,8.86
2022-11-16T01:31:30.936Z,8.74
2022-11-16T01:34:15.795Z,8.62
2022-11-16T01:37:00.574Z,8.51
2022-11-16T01:39:45.359Z,8.44
2022-11-16T01:42:30.045Z,8.50
2022-11-16T01:45:14.764Z,8.54
2022-11-16T01:47:59.610Z,8.58
2022-11-16T01:50:44.604Z,8.62
2022-11-16T01:53:29.292Z,8.71
2022-11-16T01:56:14.171Z,8.78
2022-11-16T01:58:59.194Z,8.81
2022-11-16T02:01:44.061Z,8.86
2022-11-16T02:04:28.806Z,8.88
2022-11-16T02:07:13.600Z,8.87
2022-11-16T02:09:58.538Z,8.88
2022-11-16T02:12:43.291Z,8.90
2022-11-16T02:15:28.171Z,8.89
2022-11-16T02:18:12.955Z,8.97
2022-11-16T02:20:57.697Z,9.07
2022-11-16T02:23:42.551Z,9.14
2022-11-16T02:26:27.211Z,9.17
2022-11-16T02:29:12.016Z,9.17
2022-11-16T02:31:56.798Z,9.15
2022-11-16T02:34:41.542Z,9.12
2022-11-16T02:37:26.285Z,9.10
2022-11-16T02:40:11.041Z,9.02
2022-11-16T02:42:55.699Z,8.96
2022-11-16T02:45:40.638Z,8.83
2022-11-16T02:48:25.328Z,8.75
2022-11-16T02:51:10.152Z,8.60
2022-11-16T02:53:54.880Z,8.50
2022-11-16T02:56:39.610Z,8.52
2022-11-16T02:59:24.309Z,8.64
2022-11-16T03:02:09.069Z,8.70
2022-11-16T03:04:53.957Z,8.59
2022-11-16T03:07:38.728Z,8.53
2022-11-16T03:10:23.540Z,8.49
2022-11-16T03:13:08.328Z,8.47
2022-11-16T03:15:53.172Z,8.47
2022-11-16T03:18:37.818Z,8.46
2022-11-16T03:21:22.698Z,8.50
2022-11-16T03:24:07.529Z,8.55
2022-11-16T03:26:52.194Z,8.62
2022-11-16T03:29:36.960Z,8.68
2022-11-16T03:32:21.575Z,8.63
2022-11-16T03:35:06.451Z,8.71
2022-11-16T03:37:51.077Z,8.77
2022-11-16T03:40:36.001Z,8.84
2022-11-16T03:43:20.667Z,8.81
2022-11-16T03:46:05.351Z,8.74
2022-11-16T03:48:50.051Z,8.63
2022-11-16T03:51:34.958Z,8.64
2022-11-16T03:54:19.743Z,8.61
2022-11-16T03:57:04.517Z,8.47
2022-11-16T03:59:49.430Z,8.38
2022-11-16T04:02:34.140Z,8.35
2022-11-16T04:05:18.970Z,8.32
2022-11-16T04:08:04.127Z,8.32
2022-11-16T04:10:48.830Z,8.20
2022-11-16T04:13:33.677Z,8.05
2022-11-16T04:16:18.361Z,8.00
2022-11-16T04:19:03.136Z,8.08
2022-11-16T04:21:47.959Z,8.07
2022-11-16T04:24:32.740Z,8.12
2022-11-16T04:27:17.487Z,8.13
2022-11-16T04:30:02.239Z,7.99
2022-11-16T04:32:47.079Z,8.01
2022-11-16T04:35:31.886Z,8.03
2022-11-16T04:38:16.649Z,8.04
2022-11-16T04:41:01.357Z,8.08
2022-11-16T04:43:46.057Z,8.03
2022-11-16T04:46:30.908Z,7.98
2022-11-16T04:49:15.625Z,7.91
2022-11-16T04:52:00.612Z,7.74
2022-11-16T04:54:45.434Z,7.76
2022-11-16T04:57:30.223Z,7.69
2022-11-16T05:00:15.067Z,7.64
2022-11-16T05:03:01.505Z,7.66
2022-11-16T05:05:46.632Z,7.60
2022-11-16T05:08:31.501Z,7.52
2022-11-16T05:11:16.425Z,7.52
2022-11-16T05:14:01.259Z,7.47
2022-11-16T05:16:46.025Z,7.44
2022-11-16T05:19:30.729Z,7.56
2022-11-16T05:22:15.527Z,7.58
2022-11-16T05:25:00.349Z,7.65
2022-11-16T05:27:45.106Z,7.64
2022-11-16T05:30:29.951Z,7.62
2022-11-16T05:33:14.728Z,7.63
2022-11-16T05:35:59.418Z,7.58
2022-11-16T05:38:44.123Z,7.53
2022-11-16T05:41:28.969Z,7.43
2022-11-16T05:44:13.751Z,7.33
2022-11-16T05:46:58.485Z,7.35
2022-11-16T05:49:43.310Z,7.27
2022-11-16T05:52:27.973Z,7.24
2022-11-16T05:55:12.839Z,7.17
2022-11-16T05:57:57.657Z,7.06
2022-11-16T06:00:42.338Z,6.95
2022-11-16T06:03:27.026Z,6.93
2022-11-16T06:06:11.651Z,6.97
2022-11-16T06:08:56.430Z,6.90
2022-11-16T06:11:41.146Z,6.95
2022-11-16T06:14:25.923Z,7.02
2022-11-16T06:17:10.687Z,6.98
2022-11-16T06:19:55.760Z,6.97
2022-11-16T06:22:40.620Z,6.93
2022-11-16T06:25:25.545Z,7.08
2022-11-16T06:28:10.216Z,7.10
2022-11-16T06:30:55.046Z,7.01
2022-11-16T06:33:39.703Z,6.99
2022-11-16T06:36:24.344Z,7.13
2022-11-16T06:39:09.086Z,7.16
2022-11-16T06:41:53.857Z,7.12
2022-11-16T06:44:38.623Z,7.01
2022-11-16T06:47:23.338Z,7.00
2022-11-16T06:50:08.147Z,6.98
2022-11-16T06:52:52.781Z,7.05
2022-11-16T06:55:37.611Z,7.02
2022-11-16T06:58:22.217Z,7.03
2022-11-16T07:01:06.944Z,6.98
2022-11-16T07:03:51.718Z,6.98
2022-11-16T07:06:36.443Z,6.90
2022-11-16T07:09:21.093Z,6.91
2022-11-16T07:12:05.919Z,6.86
2022-11-16T07:14:50.715Z,6.86
2022-11-16T07:17:35.501Z,6.76
2022-11-16T07:20:20.304Z,6.78
2022-11-16T07:23:06.319Z,6.77
2022-11-16T07:25:52.792Z,6.84
2022-11-16T07:28:39.923Z,6.88
2022-11-16T07:31:26.821Z,6.93
2022-11-16T07:34:11.678Z,6.90
2022-11-16T07:36:56.319Z,7.04
2022-11-16T07:39:41.143Z,7.10
2022-11-16T07:42:25.854Z,7.17
2022-11-16T07:45:10.452Z,7.21
2022-11-16T07:47:55.285Z,7.24
2022-11-16T07:50:39.942Z,7.23
2022-11-16T07:53:24.865Z,7.27
2022-11-16T07:56:09.718Z,7.26
2022-11-16T07:58:54.523Z,7.22
2022-11-16T08:01:39.433Z,7.24
2022-11-16T08:04:24.875Z,7.29
2022-11-16T08:07:09.648Z,7.37
2022-11-16T08:09:55.057Z,7.66
2022-11-16T08:12:39.690Z,7.87
2022-11-16T08:15:24.440Z,8.08
2022-11-16T08:18:09.295Z,8.27
2022-11-16T08:20:54.052Z,8.43
2022-11-16T08:23:38.915Z,8.63
2022-11-16T08:26:23.645Z,8.86
2022-11-16T08:29:08.512Z,9.03
2022-11-16T08:31:53.153Z,9.13
2022-11-16T08:34:38.069Z,9.29
2022-11-16T08:37:22.722Z,9.38
2022-11-16T08:40:07.549Z,9.53
2022-11-16T08:42:52.336Z,9.61
2022-11-16T08:45:37.060Z,9.69
2022-11-16T08:48:21.821Z,9.76
2022-11-16T08:51:22.003Z,9.91
2022-11-16T08:54:07.013Z,10.07
2022-11-16T08:56:51.824Z,10.13
2022-11-16T08:59:36.770Z,10.15
2022-11-16T09:02:21.396Z,10.19
2022-11-16T09:05:06.404Z,10.11
2022-11-16T09:07:51.075Z,10.30
2022-11-16T09:10:35.799Z,10.43
2022-11-16T09:13:20.564Z,10.53
2022-11-16T09:16:05.242Z,10.64
2022-11-16T09:18:50.119Z,10.79
2022-11-16T09:21:34.887Z,10.87
2022-11-16T09:24:19.753Z,10.92
2022-11-16T09:27:04.398Z,11.04
2022-11-16T09:29:49.204Z,10.76
2022-11-16T09:32:33.832Z,10.79
2022-11-16T09:35:18.521Z,10.87
2022-11-16T09:38:03.197Z,10.92
2022-11-16T09:40:48.378Z,11.06
2022-11-16T09:43:33.402Z,11.27
2022-11-16T09:46:18.479Z,10.80
2022-11-16T09:49:03.402Z,10.64
2022-11-16T09:51:48.187Z,10.50
2022-11-16T09:54:33.053Z,10.28
2022-11-16T09:57:17.748Z,10.06
2022-11-16T10:00:02.461Z,9.89
2022-11-16T10:02:47.171Z,9.86
2022-11-16T10:05:31.872Z,9.97
2022-11-16T10:08:16.668Z,10.28
2022-11-16T10:11:01.613Z,10.54
2022-11-16T10:13:46.305Z,10.69
2022-11-16T10:16:31.283Z,10.92
2022-11-16T10:19:16.570Z,10.99
2022-11-16T10:22:01.158Z,11.16
2022-11-16T10:24:46.219Z,11.27
2022-11-16T10:27:30.944Z,11.43
2022-11-16T10:30:15.716Z,11.52
2022-11-16T10:33:00.420Z,11.56
2022-11-16T10:35:45.211Z,11.53
2022-11-16T10:38:30.165Z,11.27
2022-11-16T10:41:15.014Z,11.03
2022-11-16T10:43:59.795Z,11.14
2022-11-16T10:46:44.407Z,11.22
2022-11-16T10:49:29.290Z,11.31
2022-11-16T10:52:13.866Z,11.39
2022-11-16T10:54:58.731Z,11.54
2022-11-16T10:57:43.449Z,11.64
2022-11-16T11:00:28.181Z,11.73
2022-11-16T11:03:12.762Z,11.85
2022-11-16T11:05:57.549Z,11.79
2022-11-16T11:08:42.148Z,11.53
2022-11-16T11:11:26.891Z,11.57
2022-11-16T11:14:11.744Z,11.48
2022-11-16T11:16:56.484Z,11.48
2022-11-16T11:19:41.386Z,11.46
2022-11-16T11:22:26.125Z,11.41
2022-11-16T11:25:10.942Z,11.47
2022-11-16T11:27:55.653Z,11.42
2022-11-16T11:30:40.458Z,11.22
2022-11-16T11:33:25.111Z,11.11
2022-11-16T11:36:09.928Z,11.06
2022-11-16T11:38:54.688Z,11.08
2022-11-16T11:41:39.855Z,11.04
2022-11-16T11:44:24.661Z,10.93
2022-11-16T11:50:14.619Z,10.83
2022-11-16T11:52:59.949Z,10.93
2022-11-16T11:55:44.635Z,11.15
2022-11-16T11:58:29.491Z,11.27
2022-11-16T12:01:14.145Z,11.40
2022-11-16T12:03:58.960Z,11.38
2022-11-16T12:06:44.294Z,11.56
2022-11-16T12:09:29.309Z,11.69
2022-11-16T12:12:14.941Z,11.77
2022-11-16T12:15:00.123Z,11.82
2022-11-16T12:17:44.817Z,11.90
2022-11-16T12:20:29.433Z,12.10
2022-11-16T12:23:14.158Z,12.11
2022-11-16T12:25:58.843Z,12.09
2022-11-16T12:28:47.108Z,12.09
2022-11-16T12:31:34.923Z,12.11
2022-11-16T12:34:19.617Z,12.22
2022-11-16T12:37:04.452Z,12.35
2022-11-16T12:39:49.357Z,12.30
2022-11-16T12:42:34.015Z,12.09
2022-11-16T12:45:18.737Z,12.01
2022-11-16T12:48:03.419Z,11.89
2022-11-16T12:50:48.227Z,11.86
2022-11-16T12:53:33.201Z,11.82
2022-11-16T12:56:18.206Z,11.68
2022-11-16T12:59:03.025Z,11.42
2022-11-16T13:01:47.691Z,11.10
2022-11-16T13:04:32.344Z,10.90
2022-11-16T13:07:17.141Z,10.91
2022-11-16T13:10:02.331Z,11.00
2022-11-16T13:12:47.156Z,11.16
2022-11-16T13:15:31.972Z,11.13
2022-11-16T13:18:16.700Z,11.23
2022-11-16T13:21:01.751Z,11.37
2022-11-16T13:23:46.771Z,11.42
2022-11-16T13:26:31.609Z,11.47
2022-11-16T13:29:16.855Z,11.46
2022-11-16T13:32:01.573Z,11.46
2022-11-16T13:34:46.246Z,11.51
2022-11-16T13:37:31.217Z,11.67
2022-11-16T13:40:16.313Z,11.71
2022-11-16T13:43:01.498Z,11.82
2022-11-16T13:45:46.404Z,11.88
2022-11-16T13:48:31.085Z,11.95
2022-11-16T13:51:16.316Z,11.94
2022-11-16T13:57:05.956Z,12.02
2022-11-16T13:59:51.069Z,11.99
2022-11-16T14:02:35.651Z,11.83
2022-11-16T14:05:20.431Z,11.71
2022-11-16T14:08:05.196Z,11.65
2022-11-16T14:10:50.035Z,11.46
2022-11-16T14:13:35.230Z,11.18
2022-11-16T14:16:20.713Z,11.08
2022-11-16T14:19:05.536Z,10.86
2022-11-16T14:21:50.240Z,10.76
2022-11-16T14:24:35.101Z,10.63
2022-11-16T14:27:19.697Z,10.59
2022-11-16T14:30:04.441Z,10.54
2022-11-16T14:32:49.165Z,10.50
2022-11-16T14:35:33.802Z,10.56
2022-11-16T14:38:18.500Z,10.58
2022-11-16T14:41:03.239Z,10.62
2022-11-16T14:43:49.128Z,10.75
2022-11-16T14:46:33.754Z,10.84
2022-11-16T14:49:18.551Z,10.92
2022-11-16T14:52:03.275Z,10.93
2022-11-16T14:54:48.158Z,10.96
2022-11-16T14:57:32.783Z,10.96
2022-11-16T15:00:17.728Z,10.98
2022-11-16T15:03:03.140Z,11.00
2022-11-16T15:05:48.478Z,10.94
2022-11-16T15:08:33.196Z,10.79
2022-11-16T15:11:17.924Z,10.65
2022-11-16T15:14:02.695Z,10.46
2022-11-16T15:16:47.333Z,10.34
2022-11-16T15:19:32.127Z,10.25
2022-11-16T15:22:17.238Z,10.23
2022-11-16T15:25:02.257Z,10.22
2022-11-16T15:27:47.139Z,10.23
2022-11-16T15:30:32.479Z,10.21
2022-11-16T15:33:17.680Z,10.19
2022-11-16T15:36:02.399Z,10.17
2022-11-16T15:38:47.278Z,10.11
2022-11-16T15:41:31.916Z,10.10
2022-11-16T15:44:17.396Z,10.08
2022-11-16T15:47:02.481Z,10.06
2022-11-16T15:49:47.201Z,10.03
2022-11-16T15:52:31.849Z,10.00
2022-11-16T15:55:16.737Z,9.94
2022-11-16T15:58:01.403Z,9.86
2022-11-16T16:00:46.070Z,9.78
2022-11-16T16:03:30.783Z,9.82
2022-11-16T16:06:15.404Z,9.74
2022-11-16T16:09:00.242Z,9.62
2022-11-16T16:11:45.229Z,9.55
2022-11-16T16:14:29.950Z,9.44
2022-11-16T16:17:14.732Z,9.37
2022-11-16T16:19:59.453Z,9.32
2022-11-16T16:22:44.166Z,9.21
2022-11-16T16:25:28.982Z,9.12
2022-11-16T16:28:13.746Z,8.99
2022-11-16T16:30:58.640Z,8.85
2022-11-16T16:33:43.357Z,8.86
2022-11-16T16:36:28.140Z,8.77
2022-11-16T16:39:12.962Z,8.70
2022-11-16T16:41:57.637Z,8.81
2022-11-16T16:44:42.543Z,8.86
2022-11-16T16:47:27.182Z,8.88
2022-11-16T16:50:11.894Z,8.82
2022-11-16T16:52:56.655Z,8.77
2022-11-16T16:55:41.569Z,8.71
2022-11-16T16:58:26.377Z,8.68
2022-11-16T17:01:11.619Z,8.69
2022-11-16T17:03:56.445Z,8.67
2022-11-16T17:06:46.225Z,8.67
2022-11-16T17:09:31.572Z,8.64
2022-11-16T17:12:16.329Z,8.62
2022-11-16T17:15:01.048Z,8.60
2022-11-16T17:17:45.859Z,8.64
2022-11-16T17:20:30.777Z,8.60
2022-11-16T17:23:15.632Z,8.53
2022-11-16T17:26:00.326Z,8.42
2022-11-16T17:28:45.078Z,8.31
2022-11-16T17:31:29.842Z,8.22
2022-11-16T17:34:14.747Z,8.10
2022-11-16T17:36:59.985Z,8.05
2022-11-16T17:39:44.645Z,7.96
2022-11-16T17:42:29.449Z,8.00
2022-11-16T17:45:14.240Z,8.08
2022-11-16T17:47:59.013Z,7.95
2022-11-16T17:50:43.777Z,7.98
2022-11-16T17:53:32.688Z,7.90
2022-11-16T17:56:17.923Z,7.87
2022-11-16T17:59:03.808Z,7.85
2022-11-16T18:01:48.672Z,7.82
2022-11-16T18:04:33.526Z,7.86
2022-11-16T18:07:18.323Z,7.81
2022-11-16T18:10:02.896Z,7.70
2022-11-16T18:12:47.748Z,7.80
2022-11-16T18:15:34.490Z,7.85
2022-11-16T18:18:21.347Z,7.77
2022-11-16T18:21:06.112Z,7.82
2022-11-16T18:23:50.873Z,7.82
2022-11-16T18:26:35.658Z,7.85
2022-11-16T18:29:20.376Z,7.79
2022-11-16T18:32:05.148Z,7.77
2022-11-16T18:34:49.946Z,7.76
2022-11-16T18:37:34.737Z,7.70
2022-11-16T18:40:19.658Z,7.73
2022-11-16T18:43:04.779Z,7.76
2022-11-16T18:45:49.588Z,7.73
2022-11-16T18:48:34.231Z,7.78
2022-11-16T18:51:19.141Z,7.75
2022-11-16T18:54:03.890Z,7.81
2022-11-16T18:56:48.615Z,7.84
2022-11-16T18:59:33.342Z,7.78
2022-11-16T19:02:18.110Z,7.73
2022-11-16T19:05:02.975Z,7.74
2022-11-16T19:07:47.601Z,7.75
2022-11-16T19:10:32.551Z,7.78
2022-11-16T19:13:17.273Z,7.76
2022-11-16T19:16:02.017Z,7.74
2022-11-16T19:18:46.598Z,7.69
2022-11-16T19:21:31.453Z,7.52
2022-11-16T19:24:16.108Z,7.35
2022-11-16T19:27:01.018Z,7.22
2022-11-16T19:29:45.771Z,7.26
2022-11-16T19:32:30.562Z,7.23
2022-11-16T19:35:15.391Z,7.33
2022-11-16T19:38:00.128Z,7.29
2022-11-16T19:40:44.892Z,7.34
2022-11-16T19:43:29.685Z,7.38
2022-11-16T19:46:14.545Z,7.37
2022-11-16T19:48:59.177Z,7.41
2022-11-16T19:51:44.046Z,7.38
2022-11-16T19:54:28.911Z,7.23
2022-11-16T19:57:13.708Z,7.19
2022-11-16T19:59:58.475Z,7.07
2022-11-16T20:02:43.176Z,6.99
2022-11-16T20:05:28.077Z,7.04
2022-11-16T20:08:12.781Z,7.16
2022-11-16T20:10:57.609Z,7.32
2022-11-16T20:13:42.271Z,7.37
2022-11-16T20:16:27.070Z,7.38
2022-11-16T20:19:11.647Z,7.38
2022-11-16T20:21:56.331Z,7.30
2022-11-16T20:24:40.977Z,7.30
2022-11-16T20:27:25.808Z,7.29
2022-11-16T20:30:10.646Z,7.34
2022-11-16T20:32:55.261Z,7.32
2022-11-16T20:35:40.076Z,7.44
2022-11-16T20:38:24.705Z,7.43
2022-11-16T20:41:09.544Z,7.44
2022-11-16T20:43:54.227Z,7.40
2022-11-16T20:46:38.990Z,7.34
2022-11-16T20:49:23.661Z,7.49
2022-11-16T20:52:08.491Z,7.45
2022-11-16T20:54:53.211Z,7.46
2022-11-16T20:57:37.952Z,7.42
2022-11-16T21:00:22.582Z,7.38
2022-11-16T21:03:07.493Z,7.46
2022-11-16T21:05:52.140Z,7.54
2022-11-16T21:08:36.974Z,7.66
2022-11-16T21:11:21.737Z,7.69
2022-11-16T21:14:06.484Z,7.63
2022-11-16T21:16:51.238Z,7.68
2022-11-16T21:19:35.894Z,7.78
2022-11-16T21:22:20.690Z,7.81
2022-11-16T21:25:05.275Z,7.91
2022-11-16T21:27:50.110Z,7.91
2022-11-16T21:30:34.773Z,7.83
2022-11-16T21:33:19.462Z,7.93
2022-11-16T21:36:04.328Z,7.86
2022-11-16T21:38:49.011Z,7.83
2022-11-16T21:41:33.802Z,7.94
2022-11-16T21:44:18.572Z,7.92
2022-11-16T21:47:03.282Z,7.88
2022-11-16T21:50:16.966Z,7.86
2022-11-16T21:52:52.732Z,7.96
2022-11-16T21:55:37.446Z,8.05
2022-11-16T21:58:22.141Z,8.10
2022-11-16T22:01:06.917Z,8.20
2022-11-16T22:03:51.685Z,8.26
2022-11-16T22:06:36.408Z,8.33
2022-11-16T22:09:21.071Z,8.36
2022-11-16T22:12:05.947Z,8.40
2022-11-16T22:14:50.501Z,8.38
2022-11-16T22:17:35.275Z,8.47
2022-11-16T22:20:20.037Z,8.54
2022-11-16T22:23:04.645Z,8.49
2022-11-16T22:25:49.869Z,8.49
2022-11-16T22:28:35.056Z,8.47
2022-11-16T22:31:19.912Z,8.38
2022-11-16T22:34:04.645Z,8.35
2022-11-16T22:36:49.367Z,8.35
2022-11-16T22:39:34.120Z,8.35
2022-11-16T22:42:18.944Z,8.37
2022-11-16T22:45:03.614Z,8.31
2022-11-16T22:47:52.111Z,8.26
2022-11-16T22:50:39.699Z,8.20
2022-11-16T22:53:24.440Z,8.16
2022-11-16T22:56:09.335Z,8.19
2022-11-16T22:58:54.307Z,8.29
2022-11-16T23:01:39.013Z,8.40
2022-11-16T23:04:23.657Z,8.52
2022-11-16T23:07:08.375Z,8.52
2022-11-16T23:09:53.188Z,8.61
2022-11-16T23:12:37.874Z,8.62
2022-11-16T23:15:22.666Z,8.64
2022-11-16T23:18:07.336Z,8.59
2022-11-16T23:20:52.116Z,8.57
2022-11-16T23:23:37.193Z,8.51
2022-11-16T23:26:21.960Z,8.54
2022-11-16T23:29:06.791Z,8.60
2022-11-16T23:31:51.470Z,8.63
2022-11-16T23:34:36.227Z,8.59
2022-11-16T23:37:20.919Z,8.55
2022-11-16T23:40:05.763Z,8.61
2022-11-16T23:42:50.455Z,8.68
2022-11-16T23:45:35.116Z,8.68
2022-11-16T23:48:19.849Z,8.64
2022-11-16T23:51:04.731Z,8.60
2022-11-16T23:53:49.507Z,8.61
2022-11-16T23:56:34.252Z,8.59
2022-11-16T23:59:19.127Z,8.59
